Terminal Aerodrome Forecast
Issued by NWS Omaha/Valley, NE

Home | Current Version | Previous Version | Text Only | Print | Product List | Glossary On
Versions: 1 2 3 4 5 6 7 8 9 10 11 12 13 14 15 16 17 18 19 20 21 22 23 24 25 26 27 28 29 30 31 32 33 34 35 36 37 38 39 40 41
000
FTUS43 KOAX 201332 AAA
TAFOFK
TAF AMD
KOFK 201332Z 2014/2112 17013KT P6SM BKN015
      TEMPO 2014/2017 OVC009
     FM201800 17014G22KT P6SM SCT040
     FM210000 16009KT P6SM SCT100
     FM210900 17006KT 5SM BR BKN010=

USA.gov is the U.S. government's official web portal to all federal, state and local government web resources and services.